Terminal Aerodrome Forecast
Issued by NWS

Home | Current Version | Previous Version | Text Only | Print | Product List | Glossary On
Versions: 1 2 3 4 5 6 7 8 9 10 11 12 13 14 15 16 17 18 19 20 21 22 23 24 25 26 27 28 29
000
FTUS43 KDLH 011700
TAFHYR
TAF
KHYR 011723Z 0118/0218 16014G22KT P6SM SCT100
     FM011900 18016G28KT P6SM BKN100
     FM020000 19012KT P6SM VCSH BKN150
     FM020200 20012KT P6SM -SHRA BKN060 WS015/21050KT
      TEMPO 0202/0204 -TSRA BKN040CB
     FM020600 27008KT P6SM SCT025 SCT080
     FM021600 26012G22KT P6SM SKC=

USA.gov is the U.S. government's official web portal to all federal, state and local government web resources and services.